Aviation Digital Data Service (ADDS)

Output produced by METARs form (0557 UTC 16 February 2019)
found at http://www.aviationweather.gov/metar/data/
 
Forecast for: YPAD (ADELAIDE INTL AR, AU)
Text: TAF YPAD 160500Z 1606/1712 23012KT CAVOK
Forecast period: 0600 to 0900 UTC 16 February 2019
Forecast type: FROM: standard forecast or significant change
Winds: from the SW (230 degrees) at 14 MPH (12 knots; 6.2 m/s)
Visibility: 6 or more miles 10+ km)
Ceiling: unknown
Clouds: missing
Weather: NSW  (no significant weather)
Text: FM160900 VRB05KT CAVOK
Forecast period: 0900 UTC 16 February 2019 to 0100 UTC 17 February 2019
Forecast type: FROM: standard forecast or significant change
Winds: variable direction winds at 6 MPH (5 knots; 2.6 m/s)
Visibility: 6 or more miles 10+ km)
Ceiling: unknown
Clouds: missing
Weather: NSW  (no significant weather)
Text: FM170100 23010KT CAVOK
Forecast period: 0100 to 1000 UTC 17 February 2019
Forecast type: FROM: standard forecast or significant change
Winds: from the SW (230 degrees) at 12 MPH (10 knots; 5.1 m/s)
Visibility: 6 or more miles 10+ km)
Ceiling: unknown
Clouds: missing
Weather: NSW  (no significant weather)
Text: FM171000 15008KT CAVOK
Forecast period: 1000 to 1200 UTC 17 February 2019
Forecast type: FROM: standard forecast or significant change
Winds: from the SSE (150 degrees) at 9 MPH (8 knots; 4.1 m/s)
Visibility: 6 or more miles 10+ km)
Ceiling: unknown
Clouds: missing
Weather: NSW  (no significant weather)